Time;durP1;ratioP1;P1;durP2;ratioP2;P2;SDS_P1;SDS_P2;PMS_P1;PMS_P2;Temp;Humidity;BMP_temperature;BMP_pressure;BME280_temperature;BME280_humidity;BME280_pressure;Samples;Min_cycle;Max_cycle;Signal;HPM_P1;HPM_P2
2022/04/20 00:01:00;;;;;;;13.40;8.32;;;15.60;74.30;;;;;;5088429;28;20412;-66
2022/04/20 00:03:25;;;;;;;13.48;8.23;;;15.50;74.40;;;;;;5106220;27;20431;-66
2022/04/20 00:05:51;;;;;;;13.23;8.00;;;15.50;74.60;;;;;;5065451;28;20402;-68
2022/04/20 00:08:17;;;;;;;14.68;8.27;;;15.50;74.70;;;;;;5072014;28;20424;-67
2022/04/20 00:10:42;;;;;;;14.00;8.88;;;15.50;75.00;;;;;;5088555;28;20417;-67
2022/04/20 00:13:09;;;;;;;13.93;8.60;;;15.40;75.90;;;;;;5090410;28;20489;-64
2022/04/20 00:15:35;;;;;;;14.63;8.40;;;15.40;75.20;;;;;;5088543;28;20410;-68
2022/04/20 00:18:01;;;;;;;12.93;8.50;;;15.40;76.30;;;;;;5088744;28;20410;-65
2022/04/20 00:20:27;;;;;;;12.88;8.60;;;15.40;75.80;;;;;;5095471;28;20414;-66
2022/04/20 00:22:52;;;;;;;12.05;8.57;;;15.40;75.90;;;;;;5086773;28;20410;-67
2022/04/20 00:25:18;;;;;;;12.77;8.27;;;15.30;76.00;;;;;;5070304;28;20941;-67
2022/04/20 00:27:44;;;;;;;12.32;8.55;;;15.30;77.00;;;;;;5072046;28;20778;-65
2022/04/20 00:30:11;;;;;;;14.30;9.03;;;15.20;76.40;;;;;;5070283;28;20908;-67
2022/04/20 00:32:37;;;;;;;12.45;8.80;;;15.20;76.70;;;;;;5072575;28;20401;-65
2022/04/20 00:35:03;;;;;;;12.77;8.50;;;15.20;76.70;;;;;;5088952;28;20406;-68
2022/04/20 00:37:28;;;;;;;13.40;8.20;;;15.20;76.80;;;;;;5072121;28;20428;-67
2022/04/20 00:39:54;;;;;;;12.43;8.60;;;15.10;76.90;;;;;;5067680;28;20504;-66
2022/04/20 00:42:22;;;;;;;11.50;8.20;;;15.10;77.20;;;;;;5089486;28;20414;-67
2022/04/20 00:44:49;;;;;;;13.80;8.90;;;15.10;77.30;;;;;;5068595;28;20408;-67
2022/04/20 00:47:16;;;;;;;13.05;8.48;;;15.00;77.30;;;;;;5088626;28;20409;-65
2022/04/20 00:49:43;;;;;;;11.67;8.20;;;15.00;77.40;;;;;;5070011;28;20401;-68
2022/04/20 00:52:09;;;;;;;14.05;8.57;;;15.00;77.50;;;;;;5089443;28;20897;-66
2022/04/20 00:54:36;;;;;;;12.85;8.30;;;14.90;77.70;;;;;;5067613;28;20898;-66
2022/04/20 00:57:01;;;;;;;15.00;8.07;;;14.90;77.60;;;;;;5103738;28;20398;-67
2022/04/20 00:59:31;;;;;;;12.57;8.30;;;14.90;77.60;;;;;;5068172;28;20398;-69
2022/04/20 01:01:58;;;;;;;12.27;8.07;;;14.90;77.80;;;;;;5094725;28;20443;-65
2022/04/20 01:04:25;;;;;;;13.38;7.88;;;14.80;77.90;;;;;;5071964;28;20413;-65
2022/04/20 01:07:14;;;;;;;12.23;8.20;;;14.80;78.00;;;;;;5081983;28;20434;-66
2022/04/20 01:09:58;;;;;;;12.63;8.38;;;14.80;78.00;;;;;;5084911;28;20505;-64
2022/04/20 01:12:46;;;;;;;14.57;8.17;;;14.70;78.00;;;;;;5069272;28;20427;-66
2022/04/20 01:15:19;;;;;;;13.45;7.85;;;14.70;77.80;;;;;;5071621;28;20395;-65
2022/04/20 01:18:16;;;;;;;11.40;7.60;;;14.70;77.70;;;;;;5087090;28;20413;-69
2022/04/20 01:20:50;;;;;;;12.02;7.57;;;14.70;77.70;;;;;;5070261;28;20404;-66
2022/04/20 01:23:35;;;;;;;13.93;7.70;;;14.70;77.50;;;;;;5087394;28;20917;-66
2022/04/20 01:26:29;;;;;;;10.50;7.30;;;14.70;77.50;;;;;;5061948;28;20411;-66
2022/04/20 01:29:07;;;;;;;13.00;8.00;;;14.60;77.20;;;;;;5071377;28;20390;-65
2022/04/20 01:31:56;;;;;;;11.90;7.32;;;14.60;77.10;;;;;;5081287;28;20485;-69
2022/04/20 01:34:45;;;;;;;11.02;6.95;;;14.60;77.00;;;;;;5070118;28;20428;-67
2022/04/20 01:37:10;;;;;;;13.50;7.50;;;14.60;76.90;;;;;;5052811;28;20977;-66
2022/04/20 01:39:37;;;;;;;13.83;7.50;;;14.60;76.50;;;;;;5068882;28;20504;-66
2022/04/20 01:42:03;;;;;;;10.43;7.20;;;14.50;76.40;;;;;;5086641;28;20500;-66
2022/04/20 01:44:30;;;;;;;15.07;7.45;;;14.50;76.10;;;;;;5067784;28;20411;-68
2022/04/20 01:47:05;;;;;;;12.68;7.40;;;14.50;76.00;;;;;;5066474;28;20421;-68
2022/04/20 01:49:34;;;;;;;12.20;7.15;;;14.40;75.90;;;;;;5080651;28;20407;-66
2022/04/20 01:52:07;;;;;;;13.07;7.20;;;14.40;75.50;;;;;;5069038;28;20394;-66
2022/04/20 01:54:36;;;;;;;10.93;6.78;;;14.40;75.50;;;;;;5073763;28;20414;-65
2022/04/20 01:57:20;;;;;;;14.77;7.53;;;14.30;75.60;;;;;;5068687;28;20489;-68
2022/04/20 01:59:58;;;;;;;14.15;7.40;;;14.30;75.60;;;;;;5088115;28;20410;-69
2022/04/20 02:02:51;;;;;;;11.88;7.15;;;14.20;75.60;;;;;;5055836;28;20562;-66
2022/04/20 02:05:37;;;;;;;13.88;7.80;;;14.20;75.50;;;;;;5087249;28;20401;-68
2022/04/20 02:08:17;;;;;;;15.33;7.60;;;14.20;75.40;;;;;;5068662;28;20906;-65
2022/04/20 02:11:01;;;;;;;14.80;7.90;;;14.10;75.20;;;;;;5086468;28;20757;-67
2022/04/20 02:13:27;;;;;;;13.48;7.47;;;14.10;74.90;;;;;;5085652;28;20501;-65
2022/04/20 02:15:56;;;;;;;11.65;7.50;;;14.00;74.90;;;;;;5062697;28;20406;-66
2022/04/20 02:18:40;;;;;;;13.88;7.35;;;14.00;74.90;;;;;;5096408;28;20279;-65
2022/04/20 02:21:27;;;;;;;15.10;7.35;;;13.60;75.70;;;;;;5081370;28;20177;-65
2022/04/20 02:23:52;;;;;;;12.52;7.10;;;13.30;76.50;;;;;;5067666;28;20230;-67
2022/04/20 02:26:19;;;;;;;11.15;7.18;;;13.10;77.00;;;;;;5064172;28;20183;-64
2022/04/20 02:28:45;;;;;;;14.38;7.00;;;13.00;77.30;;;;;;5065350;28;20261;-67
2022/04/20 02:31:11;;;;;;;13.23;7.43;;;12.80;77.50;;;;;;5065114;28;20206;-63
2022/04/20 02:33:36;;;;;;;11.68;7.00;;;12.70;77.70;;;;;;5067479;28;20183;-67
2022/04/20 02:36:02;;;;;;;12.35;7.10;;;12.60;77.90;;;;;;5060472;28;20198;-66
2022/04/20 02:38:29;;;;;;;12.30;6.28;;;12.60;78.10;;;;;;5070878;28;20610;-63
2022/04/20 02:40:55;;;;;;;15.25;6.68;;;12.50;78.10;;;;;;5064474;28;20646;-67
2022/04/20 02:43:21;;;;;;;14.20;7.28;;;12.40;78.10;;;;;;5066747;28;20198;-67
2022/04/20 02:45:47;;;;;;;13.77;6.78;;;12.30;78.20;;;;;;5061904;28;20190;-64
2022/04/20 02:48:15;;;;;;;13.70;6.72;;;12.30;78.30;;;;;;5066013;28;20776;-67
2022/04/20 02:50:43;;;;;;;12.02;6.57;;;12.30;78.40;;;;;;5067595;28;20220;-66
2022/04/20 02:53:09;;;;;;;13.60;7.43;;;12.20;78.30;;;;;;5065388;28;20178;-66
2022/04/20 02:55:38;;;;;;;13.50;6.63;;;12.20;78.40;;;;;;5065419;28;20265;-64
2022/04/20 02:58:05;;;;;;;9.48;7.03;;;12.10;78.40;;;;;;5064906;28;20206;-68
2022/04/20 03:00:32;;;;;;;11.80;6.57;;;12.10;78.40;;;;;;5065469;28;20186;-64
2022/04/20 03:03:12;;;;;;;15.25;6.85;;;12.00;78.50;;;;;;5068330;28;20272;-68
2022/04/20 03:05:38;;;;;;;9.48;6.10;;;12.00;78.60;;;;;;5066952;28;20182;-66
2022/04/20 03:08:05;;;;;;;12.98;6.72;;;11.90;78.70;;;;;;5065531;28;20214;-67
2022/04/20 03:10:32;;;;;;;11.90;6.10;;;11.90;78.80;;;;;;5070559;28;20182;-68
2022/04/20 03:12:59;;;;;;;11.30;6.05;;;11.90;78.90;;;;;;5066078;28;20174;-67
2022/04/20 03:15:25;;;;;;;10.02;6.68;;;11.90;79.00;;;;;;5068293;28;20191;-65
2022/04/20 03:17:52;;;;;;;11.95;6.70;;;11.80;79.00;;;;;;5069500;28;20555;-67
2022/04/20 03:20:18;;;;;;;12.00;7.03;;;11.80;79.20;;;;;;5072810;28;20268;-66
2022/04/20 03:22:44;;;;;;;16.20;6.95;;;11.70;79.30;;;;;;5069147;28;20240;-67
2022/04/20 03:25:11;;;;;;;12.35;6.72;;;11.70;79.50;;;;;;5069535;28;20690;-68
2022/04/20 03:27:55;;;;;;;11.68;6.68;;;11.70;79.60;;;;;;5068593;28;20216;-66
2022/04/20 03:30:21;;;;;;;12.15;6.75;;;11.60;79.60;;;;;;5072202;28;20262;-68
2022/04/20 03:32:47;;;;;;;9.35;6.78;;;11.60;79.70;;;;;;5064633;28;20722;-66
2022/04/20 03:35:15;;;;;;;11.50;6.90;;;12.10;80.10;;;;;;5066976;28;20449;-65
2022/04/20 03:37:41;;;;;;;13.85;7.20;;;12.40;79.20;;;;;;5067279;28;20602;-67
2022/04/20 03:40:10;;;;;;;12.48;7.43;;;12.50;78.50;;;;;;5069522;28;20399;-66
2022/04/20 03:42:36;;;;;;;11.23;7.65;;;12.60;78.00;;;;;;5067348;28;20469;-65
2022/04/20 03:45:02;;;;;;;11.23;7.40;;;12.60;77.70;;;;;;5052441;28;20411;-68
2022/04/20 03:47:28;;;;;;;10.52;7.53;;;12.60;77.30;;;;;;5064768;28;20906;-66
2022/04/20 03:49:54;;;;;;;11.95;7.82;;;12.70;77.20;;;;;;5070468;28;20416;-69
2022/04/20 03:52:20;;;;;;;11.40;7.40;;;12.70;77.10;;;;;;5067303;28;20400;-66
2022/04/20 03:54:47;;;;;;;13.13;7.38;;;12.70;76.70;;;;;;5069304;28;20413;-67
2022/04/20 03:57:13;;;;;;;11.97;7.33;;;12.70;76.60;;;;;;5064884;28;20975;-66
2022/04/20 03:59:41;;;;;;;9.82;7.28;;;12.70;76.50;;;;;;5069032;28;20880;-66
2022/04/20 04:02:08;;;;;;;12.00;7.53;;;12.70;76.20;;;;;;5063202;28;20880;-67
2022/04/20 04:04:40;;;;;;;11.77;7.60;;;12.70;76.10;;;;;;5067486;28;20408;-65
2022/04/20 04:07:16;;;;;;;13.25;7.47;;;12.60;76.10;;;;;;5059813;28;20796;-64
2022/04/20 04:09:41;;;;;;;13.52;7.68;;;12.60;75.90;;;;;;5068253;28;20400;-65
2022/04/20 04:12:08;;;;;;;9.85;7.13;;;12.60;76.00;;;;;;5050264;28;20471;-66
2022/04/20 04:14:39;;;;;;;11.50;7.40;;;12.60;76.50;;;;;;5067810;28;20411;-63
2022/04/20 04:17:06;;;;;;;10.55;7.20;;;12.60;75.80;;;;;;5067122;28;20431;-63
2022/04/20 04:19:34;;;;;;;9.85;7.03;;;12.60;75.70;;;;;;5060095;28;20425;-65
2022/04/20 04:22:03;;;;;;;10.68;7.13;;;12.60;75.70;;;;;;5066952;28;20399;-67
2022/04/20 04:24:35;;;;;;;14.00;7.50;;;12.50;75.80;;;;;;5066452;28;20416;-66
2022/04/20 04:27:08;;;;;;;13.15;6.95;;;12.50;75.90;;;;;;5067216;28;20426;-67
2022/04/20 04:29:40;;;;;;;10.40;6.63;;;12.40;76.00;;;;;;5066649;28;20509;-64
2022/04/20 04:32:07;;;;;;;12.55;7.55;;;12.40;76.20;;;;;;5065235;28;20415;-65
2022/04/20 04:34:34;;;;;;;10.87;7.23;;;12.40;76.20;;;;;;5067778;28;20434;-64
2022/04/20 04:37:05;;;;;;;13.00;7.38;;;12.40;76.20;;;;;;5066025;28;20524;-68
2022/04/20 04:39:32;;;;;;;14.27;7.38;;;12.30;76.00;;;;;;5063558;28;20831;-64
2022/04/20 04:42:02;;;;;;;12.60;7.35;;;12.40;76.30;;;;;;5064592;28;20911;-68
2022/04/20 04:44:29;;;;;;;12.20;7.55;;;12.30;76.10;;;;;;5066038;28;20400;-64
2022/04/20 04:49:49;;;;;;;11.77;7.03;;;12.30;76.30;;;;;;5067160;28;20391;-67
2022/04/20 04:52:15;;;;;;;12.43;7.50;;;12.30;76.30;;;;;;5073122;28;20404;-68
2022/04/20 04:54:45;;;;;;;10.73;7.30;;;12.30;76.30;;;;;;5069267;28;20466;-67
2022/04/20 04:57:12;;;;;;;14.50;8.35;;;12.30;76.40;;;;;;5064740;28;20466;-65
2022/04/20 04:59:42;;;;;;;14.13;7.97;;;12.30;76.40;;;;;;5072977;28;20424;-65
2022/04/20 05:02:09;;;;;;;14.90;8.55;;;12.20;76.30;;;;;;5065761;28;20438;-63
2022/04/20 05:04:36;;;;;;;12.98;7.10;;;12.20;76.00;;;;;;5065703;28;20403;-66
2022/04/20 05:07:04;;;;;;;14.60;7.53;;;12.20;76.10;;;;;;5046984;28;20423;-65
2022/04/20 05:09:52;;;;;;;13.07;7.10;;;12.20;76.00;;;;;;5058468;28;20873;-65
2022/04/20 05:12:19;;;;;;;15.17;7.10;;;12.20;75.90;;;;;;5061949;28;20412;-66
2022/04/20 05:14:47;;;;;;;11.20;6.90;;;12.30;75.90;;;;;;5068217;28;20459;-65
2022/04/20 05:17:13;;;;;;;12.82;7.25;;;12.20;75.90;;;;;;5063382;28;20514;-67
2022/04/20 05:19:39;;;;;;;12.88;7.00;;;12.30;75.70;;;;;;5066117;28;20411;-68
2022/04/20 05:22:19;;;;;;;15.13;7.20;;;12.30;75.70;;;;;;5059505;28;20413;-68
2022/04/20 05:24:44;;;;;;;13.55;7.40;;;12.30;75.70;;;;;;5063975;28;20518;-67
2022/04/20 05:27:14;;;;;;;17.10;7.18;;;12.30;75.70;;;;;;5063229;28;20423;-67
2022/04/20 05:29:50;;;;;;;15.95;7.47;;;12.30;75.60;;;;;;5071829;28;21142;-65
2022/04/20 05:32:16;;;;;;;17.77;7.73;;;12.30;76.20;;;;;;5064732;28;20433;-67
2022/04/20 05:34:44;;;;;;;18.20;8.57;;;12.30;75.90;;;;;;5064301;28;20433;-67
2022/04/20 05:42:46;;;;;;;16.35;7.03;;;12.40;75.60;;;;;;5059187;28;20515;-65
2022/04/20 05:45:12;;;;;;;15.67;7.57;;;12.40;75.80;;;;;;5058507;28;20408;-67
2022/04/20 05:47:40;;;;;;;15.27;7.53;;;12.40;76.40;;;;;;5069257;28;20916;-67
2022/04/20 05:50:08;;;;;;;16.00;7.40;;;12.40;75.60;;;;;;5064867;28;20412;-68
2022/04/20 05:52:33;;;;;;;14.38;7.38;;;12.40;75.60;;;;;;5066183;28;20410;-67
2022/04/20 05:55:00;;;;;;;13.57;7.57;;;12.40;75.40;;;;;;5064393;28;20416;-68
2022/04/20 05:57:26;;;;;;;13.37;7.37;;;12.50;75.60;;;;;;5065617;28;20461;-67
2022/04/20 05:59:53;;;;;;;16.00;7.10;;;12.50;75.40;;;;;;5058663;28;20413;-69
2022/04/20 06:02:18;;;;;;;12.10;6.33;;;12.60;75.60;;;;;;5063321;28;20445;-65
2022/04/20 06:04:44;;;;;;;14.73;7.25;;;12.60;75.40;;;;;;5063246;28;20510;-66
2022/04/20 06:07:29;;;;;;;13.80;6.97;;;12.60;75.40;;;;;;5065168;28;20434;-66
2022/04/20 06:10:30;;;;;;;17.40;7.15;;;12.60;74.80;;;;;;5046176;28;20528;-67
2022/04/20 06:13:00;;;;;;;13.25;6.97;;;12.70;75.10;;;;;;5074218;28;20454;-65
2022/04/20 06:15:45;;;;;;;10.55;5.90;;;12.70;75.60;;;;;;5057381;28;20490;-69
2022/04/20 06:18:30;;;;;;;10.77;6.57;;;12.70;75.70;;;;;;5065380;28;20483;-68
2022/04/20 06:21:12;;;;;;;11.13;7.00;;;12.80;75.50;;;;;;5065796;28;20407;-71
2022/04/20 06:23:50;;;;;;;12.25;6.30;;;12.80;75.50;;;;;;5069704;28;20441;-71
2022/04/20 06:26:34;;;;;;;10.60;6.00;;;12.90;75.60;;;;;;5095088;28;20453;-72
2022/04/20 06:29:11;;;;;;;10.50;5.97;;;12.90;76.00;;;;;;5089044;28;21282;-71
2022/04/20 06:32:11;;;;;;;8.03;5.30;;;12.90;75.30;;;;;;4987005;28;20410;-70
2022/04/20 06:34:47;;;;;;;9.60;5.70;;;13.00;75.20;;;;;;5059415;28;20465;-71
2022/04/20 06:37:26;;;;;;;12.07;5.65;;;13.00;74.50;;;;;;5068853;28;20412;-69
2022/04/20 06:40:12;;;;;;;11.07;5.25;;;13.10;74.50;;;;;;5075673;28;20422;-70
2022/04/20 06:42:39;;;;;;;14.00;5.80;;;13.10;74.70;;;;;;5095715;28;20837;-68
2022/04/20 06:45:23;;;;;;;9.63;5.80;;;13.20;74.20;;;;;;5052215;28;20409;-69
2022/04/20 06:48:01;;;;;;;10.90;5.50;;;13.20;73.00;;;;;;5053282;28;20508;-69
2022/04/20 06:50:44;;;;;;;10.95;5.50;;;13.20;73.20;;;;;;5067695;28;20740;-70
2022/04/20 06:58:57;;;;;;;11.40;5.57;;;13.30;72.20;;;;;;5067372;28;20485;-69
2022/04/20 07:01:36;;;;;;;14.48;5.90;;;13.40;72.40;;;;;;5097261;28;20496;-68
2022/04/20 07:04:17;;;;;;;11.85;5.68;;;13.40;72.50;;;;;;5098487;28;20471;-69
2022/04/20 07:06:54;;;;;;;9.02;5.20;;;13.40;72.40;;;;;;5068451;28;20556;-68
2022/04/20 07:09:26;;;;;;;12.60;5.70;;;13.40;73.00;;;;;;5083881;28;20740;-68
2022/04/20 07:12:11;;;;;;;12.35;6.03;;;13.50;73.00;;;;;;5101139;28;20448;-69
2022/04/20 07:14:37;;;;;;;11.83;6.13;;;13.60;72.00;;;;;;5066857;28;21107;-68
2022/04/20 07:17:03;;;;;;;10.40;5.93;;;13.60;72.10;;;;;;5085818;28;20455;-69
2022/04/20 07:19:35;;;;;;;9.18;5.85;;;13.60;72.20;;;;;;5063572;28;20425;-69
2022/04/20 07:22:26;;;;;;;11.75;5.78;;;13.70;71.60;;;;;;5052349;28;20838;-68
2022/04/20 07:25:05;;;;;;;11.88;6.22;;;13.70;72.00;;;;;;5088941;28;20501;-69
2022/04/20 07:27:56;;;;;;;13.20;5.90;;;13.80;71.60;;;;;;5057579;28;20423;-68
2022/04/20 07:30:44;;;;;;;13.73;6.00;;;13.80;71.60;;;;;;5064595;28;20419;-70
2022/04/20 07:33:35;;;;;;;15.93;5.80;;;13.80;71.60;;;;;;5073705;28;20398;-70
2022/04/20 07:36:21;;;;;;;13.50;6.03;;;13.90;70.80;;;;;;5062016;28;20408;-68
2022/04/20 07:39:16;;;;;;;11.95;5.70;;;13.90;70.80;;;;;;5052597;28;20447;-66
2022/04/20 07:42:00;;;;;;;13.30;5.65;;;14.00;71.10;;;;;;5065205;28;20502;-68
2022/04/20 07:44:37;;;;;;;13.68;5.40;;;14.00;69.90;;;;;;5062020;28;20411;-69
2022/04/20 07:47:15;;;;;;;13.13;5.00;;;14.10;69.60;;;;;;5068060;28;20489;-68
2022/04/20 07:53:00;;;;;;;8.98;4.85;;;14.20;68.00;;;;;;5065868;28;20892;-70
2022/04/20 07:55:48;;;;;;;11.65;5.00;;;14.30;69.00;;;;;;5065568;28;20419;-68
2022/04/20 07:58:27;;;;;;;10.50;4.60;;;14.30;67.90;;;;;;5068578;28;20915;-69
2022/04/20 08:01:19;;;;;;;7.07;4.68;;;14.40;66.10;;;;;;5058574;28;20412;-69
2022/04/20 08:03:54;;;;;;;7.95;4.55;;;14.40;67.00;;;;;;5066863;28;20419;-67
2022/04/20 08:06:33;;;;;;;7.78;4.97;;;14.50;65.60;;;;;;5066501;28;20407;-67
2022/04/20 08:09:01;;;;;;;8.65;4.65;;;14.60;66.50;;;;;;5077636;28;20766;-69
2022/04/20 08:11:26;;;;;;;8.77;4.80;;;14.60;66.60;;;;;;5069470;28;20418;-69
2022/04/20 08:14:10;;;;;;;7.97;4.93;;;14.70;67.50;;;;;;5069379;28;20892;-70
2022/04/20 08:16:47;;;;;;;8.30;4.47;;;14.90;66.10;;;;;;5068168;28;20733;-68
2022/04/20 08:19:33;;;;;;;9.10;4.82;;;15.00;65.80;;;;;;5055695;28;20407;-69
2022/04/20 08:22:01;;;;;;;11.63;4.53;;;15.10;63.70;;;;;;5068948;28;22329;-69
2022/04/20 08:24:27;;;;;;;8.60;4.63;;;15.20;62.30;;;;;;5067896;28;20486;-69
2022/04/20 08:26:53;;;;;;;11.50;4.70;;;15.30;62.10;;;;;;5069908;28;20465;-67
2022/04/20 08:29:18;;;;;;;9.32;4.22;;;15.40;59.90;;;;;;5065698;28;20801;-67
2022/04/20 08:31:44;;;;;;;6.70;3.80;;;15.60;60.60;;;;;;5069215;28;20408;-67
2022/04/20 08:34:10;;;;;;;8.57;3.97;;;15.80;59.20;;;;;;5066265;28;20464;-68
2022/04/20 08:36:35;;;;;;;7.95;3.70;;;16.00;58.40;;;;;;5065493;28;21320;-68
2022/04/20 08:39:01;;;;;;;7.93;3.70;;;16.30;58.10;;;;;;5064965;28;20488;-68
2022/04/20 08:41:27;;;;;;;6.25;3.30;;;16.60;56.20;;;;;;5065575;28;20412;-68
2022/04/20 08:43:53;;;;;;;6.60;3.40;;;16.90;54.00;;;;;;5082977;28;20404;-67
2022/04/20 08:46:18;;;;;;;4.97;3.00;;;17.20;54.60;;;;;;5070088;28;20432;-67
2022/04/20 08:48:44;;;;;;;5.00;3.27;;;17.60;51.30;;;;;;5052488;28;20422;-67
2022/04/20 08:51:10;;;;;;;;;;;18.20;50.00;;;;;;5069256;28;20744;-65
2022/04/20 08:53:36;;;;;;;;;;;18.80;49.40;;;;;;5068646;28;19915;-66
2022/04/20 08:58:48;;;;;;;;;;;19.40;50.00;;;;;;5081222;28;19982;-65
2022/04/20 09:01:14;;;;;;;;;;;19.50;51.90;;;;;;5073665;28;20236;-66
2022/04/20 09:03:42;;;;;;;;;;;19.90;52.00;;;;;;5065864;28;19947;-67
2022/04/20 09:06:09;;;;;;;;;;;20.50;51.50;;;;;;5068017;28;19916;-66
2022/04/20 09:08:35;;;;;;;;;;;23.00;39.10;;;;;;5075911;28;19912;-66
2022/04/20 09:11:01;;;;;;;;;;;24.70;35.50;;;;;;5067808;28;19909;-66
2022/04/20 09:13:33;;;;;;;;;;;25.90;34.10;;;;;;5079063;28;20339;-66
2022/04/20 09:16:06;;;;;;;;;;;26.80;31.80;;;;;;5066859;28;19908;-66
2022/04/20 09:18:32;;;;;;;;;;;27.50;31.20;;;;;;5071813;28;20375;-67
2022/04/20 09:21:07;;;;;;;;;;;28.20;31.30;;;;;;5068103;28;19916;-66
2022/04/20 09:23:34;;;;;;;;;;;28.70;29.10;;;;;;5077518;28;19912;-66
2022/04/20 09:26:13;;;;;;;;;;;29.30;27.60;;;;;;5088557;28;20365;-67
2022/04/20 09:28:40;;;;;;;;;;;29.70;27.20;;;;;;5055763;28;19993;-65
2022/04/20 09:31:07;;;;;;;;;;;30.30;27.60;;;;;;5072144;28;19977;-65
2022/04/20 09:33:43;;;;;;;;;;;30.70;26.50;;;;;;5095139;28;19908;-67
2022/04/20 09:36:08;;;;;;;;;;;29.50;29.20;;;;;;5090472;28;19908;-67
2022/04/20 09:38:37;;;;;;;;;;;28.70;30.60;;;;;;5071748;28;19966;-71
2022/04/20 09:41:09;;;;;;;;;;;28.20;32.90;;;;;;5068723;28;19992;-70
2022/04/20 09:43:34;;;;;;;;;;;27.70;34.60;;;;;;5088907;28;19966;-70
2022/04/20 09:46:01;;;;;;;;;;;27.20;35.90;;;;;;5095200;28;20318;-70
2022/04/20 09:51:12;;;;;;;;;;;27.00;38.20;;;;;;5090986;28;19914;-70
2022/04/20 09:53:39;;;;;;;;;;;27.00;38.80;;;;;;5077163;28;19911;-69
2022/04/20 09:56:14;;;;;;;;;;;27.00;39.30;;;;;;5077629;28;19973;-69
2022/04/20 09:58:40;;;;;;;;;;;27.20;39.80;;;;;;5089269;28;19990;-69
2022/04/20 10:01:06;;;;;;;;;;;27.40;40.10;;;;;;5089205;28;20002;-68
2022/04/20 10:03:33;;;;;;;;;;;27.50;40.10;;;;;;5088877;28;19947;-68
2022/04/20 10:05:59;;;;;;;;;;;27.60;40.10;;;;;;5070972;28;19959;-68
2022/04/20 10:08:25;;;;;;;;;;;27.80;40.00;;;;;;5091969;28;20300;-69
2022/04/20 10:10:52;;;;;;;;;;;28.10;40.30;;;;;;5072599;28;19919;-68
2022/04/20 10:13:19;;;;;;;;;;;28.30;39.60;;;;;;5085597;28;19947;-68
2022/04/20 10:18:30;;;;;;;;;;;29.00;39.40;;;;;;5085339;28;19987;-69
2022/04/20 10:21:00;;;;;;;;;;;29.50;39.10;;;;;;5087487;28;19923;-70
2022/04/20 10:23:25;;;;;;;;;;;30.00;39.00;;;;;;5088872;28;19916;-71
2022/04/20 10:25:52;;;;;;;;;;;30.40;36.60;;;;;;5084679;28;19924;-68
2022/04/20 10:28:28;;;;;;;;;;;30.80;37.50;;;;;;5080324;28;19916;-73
2022/04/20 10:31:12;;;;;;;;;;;31.00;38.00;;;;;;5083203;28;19916;-70
2022/04/20 10:33:41;;;;;;;7.57;3.40;;;30.60;36.00;;;;;;5093551;28;20397;-70
2022/04/20 10:36:33;;;;;;;5.40;3.37;;;31.70;26.80;;;;;;5083750;28;20487;-70
2022/04/20 10:39:26;;;;;;;5.53;3.53;;;31.30;26.70;;;;;;5067962;28;20429;-70
2022/04/20 10:42:20;;;;;;;6.68;3.80;;;30.50;27.00;;;;;;5070016;28;20405;-72
2022/04/20 10:45:06;;;;;;;6.38;3.45;;;29.70;27.50;;;;;;5083502;28;20427;-72
2022/04/20 10:47:38;;;;;;;9.67;3.00;;;28.90;28.40;;;;;;5067953;28;20443;-69
2022/04/20 10:50:22;;;;;;;6.93;3.33;;;28.30;28.90;;;;;;5085704;28;20894;-66
2022/04/20 10:53:02;;;;;;;;;;;27.80;30.70;;;;;;5071831;28;20755;-75
2022/04/20 10:55:30;;;;;;;;;;;27.30;30.80;;;;;;5070858;28;19912;-69
2022/04/20 10:57:56;;;;;;;;;;;27.00;32.00;;;;;;5075841;28;19914;-68
2022/04/20 11:00:22;;;;;;;;;;;26.70;30.50;;;;;;5078716;28;20288;-69
2022/04/20 11:02:49;;;;;;;;;;;26.50;32.00;;;;;;5084930;28;19959;-70
2022/04/20 11:05:15;;;;;;;;;;;26.30;32.00;;;;;;5069118;28;19908;-71
2022/04/20 11:07:59;;;;;;;;;;;26.10;32.30;;;;;;5070955;28;19977;-74
2022/04/20 11:10:25;;;;;;;;;;;26.00;31.00;;;;;;5077243;28;20368;-71
2022/04/20 11:21:11;;;;;;;;;;;27.60;28.70;;;;;;5070777;28;19908;-67
2022/04/20 11:23:57;;;;;;;;;;;28.90;27.00;;;;;;5077036;28;19970;-67
2022/04/20 11:26:27;;;;;;;;;;;29.90;26.20;;;;;;5093999;28;19938;-71
2022/04/20 11:28:54;;;;;;;;;;;30.90;25.00;;;;;;5088461;28;19916;-66
2022/04/20 11:31:19;;;;;;;;;;;31.80;24.30;;;;;;5090257;28;19916;-70
2022/04/20 11:33:45;;;;;;;;;;;31.70;24.70;;;;;;5062043;28;19961;-73
2022/04/20 11:36:12;;;;;;;;;;;31.10;25.20;;;;;;5094274;28;20399;-66
2022/04/20 11:38:40;;;;;;;;;;;30.30;25.40;;;;;;5098660;28;19912;-68
2022/04/20 11:41:05;;;;;;;;;;;29.30;26.50;;;;;;5075575;28;19915;-68
2022/04/20 11:43:31;;;;;;;;;;;28.50;27.60;;;;;;5073596;28;19911;-71
2022/04/20 11:45:57;;;;;;;;;;;28.30;26.60;;;;;;5074173;28;20357;-66
2022/04/20 11:48:23;;;;;;;;;;;27.70;27.10;;;;;;5090180;28;19916;-70
2022/04/20 11:50:56;;;;;;;;;;;27.20;27.80;;;;;;5094055;28;20371;-67
2022/04/20 11:53:32;;;;;;;;;;;26.80;28.00;;;;;;5091637;28;19912;-70
2022/04/20 11:56:15;;;;;;;;;;;26.60;28.30;;;;;;5073174;28;19914;-70
2022/04/20 11:58:49;;;;;;;;;;;26.30;28.40;;;;;;5089072;28;21697;-72
2022/04/20 12:01:15;;;;;;;;;;;26.20;28.60;;;;;;5086210;28;20287;-69
2022/04/20 12:03:42;;;;;;;;;;;26.00;29.00;;;;;;5066343;28;19908;-70
2022/04/20 12:06:10;;;;;;;;;;;25.90;29.20;;;;;;5081910;28;19915;-69
2022/04/20 12:08:38;;;;;;;;;;;25.90;29.20;;;;;;5092578;28;19969;-73
2022/04/20 12:11:04;;;;;;;;;;;26.20;28.80;;;;;;5085638;28;19908;-71
2022/04/20 12:13:31;;;;;;;;;;;26.30;28.30;;;;;;5071717;28;19995;-72
2022/04/20 12:16:08;;;;;;;;;;;26.30;28.50;;;;;;5079616;28;19923;-73
2022/04/20 12:18:37;;;;;;;;;;;26.20;27.80;;;;;;5068776;28;19907;-69
2022/04/20 12:21:03;;;;;;;;;;;26.10;28.10;;;;;;5090733;28;21631;-72
2022/04/20 12:23:33;;;;;;;;;;;26.00;28.10;;;;;;5083128;28;19961;-71
2022/04/20 12:26:01;;;;;;;;;;;26.00;28.10;;;;;;5083468;28;19924;-72
2022/04/20 12:28:41;;;;;;;;;;;26.10;28.20;;;;;;5068544;28;20308;-70
2022/04/20 12:31:08;;;;;;;;;;;26.10;28.50;;;;;;5069909;28;20428;-72
2022/04/20 12:33:34;;;;;;;;;;;26.20;28.50;;;;;;5070559;28;19912;-71
2022/04/20 12:36:11;;;;;;;;;;;26.20;29.00;;;;;;5070586;28;19959;-70
2022/04/20 12:38:44;;;;;;;;;;;26.60;28.10;;;;;;5052278;28;19908;-65
2022/04/20 12:41:29;;;;;;;;;;;26.30;28.80;;;;;;5068799;28;20353;-62
2022/04/20 12:43:54;;;;;;;;;;;26.10;29.20;;;;;;5069687;28;20521;-69
2022/04/20 12:46:20;;;;;;;;;;;26.10;29.90;;;;;;5072990;28;19918;-73
2022/04/20 12:48:47;;;;;;;;;;;26.10;30.00;;;;;;5068495;28;19927;-72
2022/04/20 12:51:23;;;;;;;;;;;26.20;30.00;;;;;;5070227;28;20289;-68
2022/04/20 12:53:49;;;;;;;;;;;26.40;30.10;;;;;;5064398;28;19987;-70
2022/04/20 13:02:01;;;;;;;;;;;27.10;29.20;;;;;;5068034;28;19908;-67
2022/04/20 13:04:28;;;;;;;;;;;27.20;29.10;;;;;;5098808;27;19931;-68
2022/04/20 13:06:55;;;;;;;;;;;27.30;28.80;;;;;;5068457;28;20373;-69
2022/04/20 13:09:20;;;;;;;;;;;27.40;28.80;;;;;;5067995;28;19965;-70
2022/04/20 13:11:46;;;;;;;;;;;27.40;28.90;;;;;;5069126;28;19908;-67
2022/04/20 13:14:11;;;;;;;;;;;27.40;29.20;;;;;;5070687;28;19948;-69
2022/04/20 13:16:37;;;;;;;;;;;27.40;29.10;;;;;;5067195;28;20881;-69
2022/04/20 13:19:03;;;;;;;;;;;27.30;29.40;;;;;;5072594;28;19908;-74
2022/04/20 13:21:29;;;;;;;;;;;27.20;29.70;;;;;;5078613;28;19912;-69
2022/04/20 13:23:55;;;;;;;;;;;27.10;30.40;;;;;;5071861;28;19970;-72
2022/04/20 13:29:05;;;;;;;;;;;26.90;30.50;;;;;;5089378;28;19934;-68
2022/04/20 13:31:31;;;;;;;;;;;26.70;30.70;;;;;;5069824;28;19995;-71
2022/04/20 13:33:57;;;;;;;;;;;26.70;30.60;;;;;;5071542;28;19957;-71
2022/04/20 13:36:22;;;;;;;;;;;27.30;30.00;;;;;;5086464;28;20404;-70
2022/04/20 13:38:48;;;;;;;;;;;26.90;30.00;;;;;;5048646;28;19912;-69
2022/04/20 13:41:14;;;;;;;;;;;26.50;30.60;;;;;;5069530;28;19912;-71
2022/04/20 13:43:39;;;;;;;;;;;26.40;30.30;;;;;;5072298;28;19965;-67
2022/04/20 13:46:05;;;;;;;;;;;26.20;29.90;;;;;;5098231;28;19914;-73
2022/04/20 13:48:30;;;;;;;;;;;26.10;30.80;;;;;;5089408;28;19919;-67
2022/04/20 13:50:56;;;;;;;;;;;26.40;29.80;;;;;;5090151;28;19998;-72
2022/04/20 13:53:21;;;;;;;;;;;26.50;29.40;;;;;;5086525;28;19919;-72
2022/04/20 13:55:47;;;;;;;;;;;26.50;29.40;;;;;;5089885;28;19957;-72
2022/04/20 13:58:13;;;;;;;;;;;26.50;30.80;;;;;;5086089;28;19927;-72
2022/04/20 14:00:40;;;;;;;;;;;26.50;29.80;;;;;;5072159;28;19919;-70
2022/04/20 14:03:07;;;;;;;;;;;26.50;29.60;;;;;;5086789;28;19920;-70
2022/04/20 14:05:32;;;;;;;;;;;26.40;29.60;;;;;;5087527;28;19964;-68
2022/04/20 14:07:58;;;;;;;;;;;26.40;30.80;;;;;;5087799;28;20373;-69
2022/04/20 14:10:23;;;;;;;;;;;26.20;30.10;;;;;;5087113;28;19912;-69
2022/04/20 14:12:49;;;;;;;;;;;26.10;30.00;;;;;;5084021;28;20432;-67